Time;durP1;ratioP1;P1;durP2;ratioP2;P2;SDS_P1;SDS_P2;PMS_P1;PMS_P2;Temp;Humidity;BMP_temperature;BMP_pressure;BME280_temperature;BME280_humidity;BME280_pressure;Samples;Min_cycle;Max_cycle;Signal;HPM_P1;HPM_P2
2021/12/29 00:01:26;;;;;;;28.38;12.65;;;6.70;99.90;;;;;;5117150;27;20123;-80
2021/12/29 00:03:52;;;;;;;26.17;13.07;;;6.60;99.90;;;;;;5119112;27;20508;-82
2021/12/29 00:06:18;;;;;;;39.60;15.75;;;6.60;99.90;;;;;;5117732;27;20043;-82
2021/12/29 00:08:44;;;;;;;34.67;14.98;;;6.70;99.90;;;;;;5116859;28;20042;-81
2021/12/29 00:11:09;;;;;;;38.40;15.07;;;6.60;99.90;;;;;;5114359;28;20039;-82
2021/12/29 00:13:35;;;;;;;34.80;14.57;;;6.70;99.90;;;;;;5121623;28;20044;-82
2021/12/29 00:16:02;;;;;;;37.67;14.60;;;6.90;99.90;;;;;;5090813;28;20463;-83
2021/12/29 00:18:30;;;;;;;39.80;15.35;;;6.80;99.90;;;;;;5112701;28;20526;-81
2021/12/29 00:20:58;;;;;;;41.83;15.10;;;6.90;99.90;;;;;;5114129;28;20040;-83
2021/12/29 00:23:24;;;;;;;56.58;20.02;;;6.90;99.90;;;;;;5128517;28;20050;-82
2021/12/29 00:25:50;;;;;;;37.28;15.52;;;7.00;99.90;;;;;;5128950;28;20098;-83
2021/12/29 00:28:16;;;;;;;44.63;17.25;;;7.00;99.90;;;;;;5102853;28;20058;-82
2021/12/29 00:30:42;;;;;;;36.60;17.33;;;7.10;99.90;;;;;;5097888;28;20069;-84
2021/12/29 00:33:08;;;;;;;32.53;15.25;;;7.10;99.90;;;;;;5105957;28;20093;-83
2021/12/29 00:35:35;;;;;;;37.03;16.50;;;7.00;99.90;;;;;;5108120;28;20150;-83
2021/12/29 00:38:03;;;;;;;40.95;16.55;;;7.00;99.90;;;;;;5101904;28;20557;-83
2021/12/29 00:40:29;;;;;;;47.22;16.85;;;7.10;99.90;;;;;;5107630;28;20378;-82
2021/12/29 00:42:55;;;;;;;43.63;17.83;;;7.10;99.90;;;;;;5104334;28;20533;-81
2021/12/29 00:45:21;;;;;;;37.42;17.52;;;7.10;99.90;;;;;;5112812;28;21152;-84
2021/12/29 00:47:48;;;;;;;50.40;20.67;;;7.20;99.90;;;;;;5103705;28;20051;-84
2021/12/29 00:50:15;;;;;;;43.13;19.95;;;7.20;99.90;;;;;;5109258;28;20047;-76
2021/12/29 00:52:44;;;;;;;59.88;20.67;;;7.20;99.90;;;;;;5110835;28;20044;-83
2021/12/29 00:55:10;;;;;;;45.47;20.70;;;7.10;99.90;;;;;;5108764;28;20111;-80
2021/12/29 00:57:35;;;;;;;46.10;20.30;;;7.20;99.90;;;;;;5118390;28;20044;-78
2021/12/29 01:00:02;;;;;;;54.72;23.95;;;7.10;99.90;;;;;;5101201;28;20503;-82
2021/12/29 01:02:28;;;;;;;55.40;22.55;;;7.10;99.90;;;;;;5089392;28;20043;-82
2021/12/29 01:04:54;;;;;;;61.25;24.23;;;7.10;99.90;;;;;;5110209;28;20054;-79
2021/12/29 01:07:19;;;;;;;70.43;22.73;;;7.10;99.90;;;;;;5091051;28;20068;-83
2021/12/29 01:09:45;;;;;;;74.53;24.85;;;7.00;99.90;;;;;;5113791;27;20043;-81
2021/12/29 01:12:12;;;;;;;68.88;23.55;;;7.10;99.90;;;;;;5097434;28;20367;-84
2021/12/29 01:14:41;;;;;;;60.00;23.27;;;7.00;99.90;;;;;;5115627;27;20121;-83
2021/12/29 01:17:08;;;;;;;67.25;21.25;;;7.00;99.90;;;;;;5128304;27;20523;-83
2021/12/29 01:19:33;;;;;;;85.10;22.65;;;7.00;99.90;;;;;;5107090;27;20508;-82
2021/12/29 01:22:01;;;;;;;118.40;26.88;;;7.00;99.90;;;;;;5101088;28;20127;-83
2021/12/29 01:24:28;;;;;;;86.90;22.35;;;7.00;99.90;;;;;;5111572;27;20059;-82
2021/12/29 01:26:55;;;;;;;90.80;24.40;;;7.00;99.90;;;;;;5129735;27;20047;-75
2021/12/29 01:29:21;;;;;;;112.80;25.83;;;6.90;99.90;;;;;;5101783;27;20078;-82
2021/12/29 01:31:47;;;;;;;125.07;25.50;;;7.00;99.90;;;;;;5119384;27;20032;-82
2021/12/29 01:34:14;;;;;;;71.00;18.80;;;7.00;99.90;;;;;;5128403;27;20537;-78
2021/12/29 01:36:41;;;;;;;64.22;19.15;;;6.90;99.90;;;;;;5114641;27;20040;-84
2021/12/29 01:39:11;;;;;;;94.28;17.45;;;6.90;99.90;;;;;;5112638;28;20031;-82
2021/12/29 01:41:37;;;;;;;46.40;14.55;;;6.90;99.90;;;;;;5098488;28;20083;-81
2021/12/29 01:44:03;;;;;;;85.00;15.35;;;6.90;99.90;;;;;;5094145;28;20087;-81
2021/12/29 01:46:29;;;;;;;71.75;15.77;;;6.90;99.90;;;;;;5114520;27;20040;-83
2021/12/29 01:48:55;;;;;;;96.10;16.25;;;6.90;99.90;;;;;;5093719;28;20455;-84
2021/12/29 01:51:21;;;;;;;70.75;13.90;;;6.90;99.90;;;;;;5121622;27;20780;-83
2021/12/29 01:54:01;;;;;;;85.85;17.17;;;7.00;99.90;;;;;;5093381;28;20429;-83
2021/12/29 01:56:27;;;;;;;74.32;16.17;;;7.00;99.90;;;;;;5111536;27;20130;-82
2021/12/29 01:58:53;;;;;;;66.72;14.88;;;7.00;99.90;;;;;;5094523;27;20162;-84
2021/12/29 02:01:19;;;;;;;69.38;18.67;;;6.90;99.90;;;;;;5112299;27;20556;-83
2021/12/29 02:03:45;;;;;;;86.13;17.02;;;7.00;99.90;;;;;;5113954;27;20051;-82
2021/12/29 02:06:11;;;;;;;76.15;16.98;;;7.00;99.90;;;;;;5119298;27;20096;-79
2021/12/29 02:08:36;;;;;;;56.63;15.95;;;7.10;99.90;;;;;;5112830;27;20152;-83
2021/12/29 02:11:04;;;;;;;45.33;15.10;;;7.10;99.90;;;;;;5110903;27;20039;-81
2021/12/29 02:13:30;;;;;;;52.33;16.25;;;7.10;99.90;;;;;;5092879;28;20118;-83
2021/12/29 02:15:56;;;;;;;54.47;16.95;;;7.20;99.90;;;;;;5099959;27;20227;-82
2021/12/29 02:18:21;;;;;;;47.42;15.85;;;7.10;99.90;;;;;;5116064;27;20043;-83
2021/12/29 02:20:50;;;;;;;52.33;17.50;;;7.20;99.90;;;;;;5096496;27;20039;-83
2021/12/29 02:23:24;;;;;;;40.30;16.20;;;7.20;99.90;;;;;;5113533;27;20048;-84
2021/12/29 02:25:53;;;;;;;50.30;19.23;;;7.20;99.90;;;;;;5109790;27;20047;-84
2021/12/29 02:28:22;;;;;;;42.63;17.45;;;7.20;99.90;;;;;;5131527;27;20401;-81
2021/12/29 02:30:48;;;;;;;43.97;21.15;;;7.20;99.90;;;;;;5119542;27;20508;-84
2021/12/29 02:33:15;;;;;;;51.15;17.15;;;7.30;99.90;;;;;;5094421;28;20040;-81
2021/12/29 02:35:42;;;;;;;44.80;19.05;;;7.30;99.90;;;;;;5092907;27;20047;-83
2021/12/29 02:38:17;;;;;;;45.75;19.38;;;7.40;99.90;;;;;;5132362;27;20039;-82
2021/12/29 02:40:43;;;;;;;46.50;21.33;;;7.30;99.90;;;;;;5091507;28;20039;-79
2021/12/29 02:43:12;;;;;;;42.05;20.73;;;7.30;99.90;;;;;;5093042;28;20043;-82
2021/12/29 02:45:37;;;;;;;42.85;21.55;;;7.30;99.90;;;;;;5122036;27;20035;-82
2021/12/29 02:48:03;;;;;;;53.78;22.23;;;7.40;99.90;;;;;;5110632;27;20516;-82
2021/12/29 02:50:29;;;;;;;48.40;20.67;;;7.40;99.90;;;;;;5110498;27;20367;-83
2021/12/29 02:52:54;;;;;;;42.80;21.90;;;7.30;99.90;;;;;;5111080;27;20044;-82
2021/12/29 02:55:20;;;;;;;44.72;21.33;;;7.40;99.90;;;;;;5118256;27;20051;-82
2021/12/29 02:57:46;;;;;;;41.05;22.55;;;7.30;99.90;;;;;;5092700;28;20048;-82
2021/12/29 03:00:14;;;;;;;38.88;19.73;;;7.50;99.90;;;;;;5121084;27;20039;-82
2021/12/29 03:02:39;;;;;;;41.25;21.80;;;7.50;99.90;;;;;;5110747;27;20405;-80
2021/12/29 03:05:05;;;;;;;34.28;21.23;;;7.40;99.90;;;;;;5117712;27;20039;-82
2021/12/29 03:07:31;;;;;;;39.38;22.15;;;7.40;99.90;;;;;;5113860;27;20039;-82
2021/12/29 03:09:56;;;;;;;32.65;20.17;;;7.40;99.90;;;;;;5094219;28;20101;-82
2021/12/29 03:12:22;;;;;;;34.00;21.08;;;7.40;99.90;;;;;;5109785;27;20088;-82
2021/12/29 03:14:57;;;;;;;43.25;24.67;;;7.40;99.90;;;;;;5111137;27;20494;-82
2021/12/29 03:17:23;;;;;;;43.83;22.30;;;7.40;99.90;;;;;;5123988;27;20039;-81
2021/12/29 03:19:49;;;;;;;39.63;21.30;;;7.40;99.90;;;;;;5116944;27;20043;-83
2021/12/29 03:22:15;;;;;;;36.25;23.05;;;7.50;99.90;;;;;;5111657;28;20524;-74
2021/12/29 03:24:41;;;;;;;45.38;22.38;;;7.40;99.90;;;;;;5109683;27;20039;-79
2021/12/29 03:27:07;;;;;;;37.03;22.67;;;7.40;99.90;;;;;;5097954;27;20567;-82
2021/12/29 03:29:32;;;;;;;42.78;24.13;;;7.40;99.90;;;;;;5113458;27;20473;-81
2021/12/29 03:31:59;;;;;;;40.42;24.10;;;7.50;99.90;;;;;;5126872;27;20394;-83
2021/12/29 03:34:25;;;;;;;38.90;23.65;;;7.40;99.90;;;;;;5117164;27;20047;-84
2021/12/29 03:36:51;;;;;;;32.15;19.60;;;7.50;99.90;;;;;;5110785;28;20046;-84
2021/12/29 03:39:17;;;;;;;35.38;20.55;;;7.40;99.90;;;;;;5112055;27;20455;-84
2021/12/29 03:41:43;;;;;;;37.92;21.80;;;7.50;99.90;;;;;;5119859;27;20031;-78
2021/12/29 03:44:09;;;;;;;42.65;22.65;;;7.50;99.90;;;;;;5110036;27;20093;-84
2021/12/29 03:46:39;;;;;;;31.33;20.63;;;7.50;99.90;;;;;;5090755;28;20043;-84
2021/12/29 03:49:04;;;;;;;33.97;21.17;;;7.50;99.90;;;;;;5113571;27;20042;-82
2021/12/29 03:51:30;;;;;;;36.97;21.15;;;7.50;99.90;;;;;;5127721;27;20549;-82
2021/12/29 03:53:56;;;;;;;30.50;19.98;;;7.50;99.90;;;;;;5115400;27;20508;-83
2021/12/29 03:56:21;;;;;;;41.78;22.10;;;7.50;99.90;;;;;;5089983;28;20048;-83
2021/12/29 03:58:47;;;;;;;35.67;19.60;;;7.50;99.90;;;;;;5118656;27;20166;-84
2021/12/29 04:01:15;;;;;;;42.28;21.13;;;7.40;99.90;;;;;;5090591;28;20514;-75
2021/12/29 04:03:44;;;;;;;34.88;20.08;;;7.40;99.90;;;;;;5094324;27;20100;-83
2021/12/29 04:06:10;;;;;;;29.40;19.15;;;7.40;99.90;;;;;;5109367;28;20084;-84
2021/12/29 04:08:37;;;;;;;30.75;20.30;;;7.50;99.90;;;;;;5122913;27;20031;-82
2021/12/29 04:11:02;;;;;;;30.70;19.58;;;7.40;99.90;;;;;;5100349;28;20047;-83
2021/12/29 04:13:28;;;;;;;33.50;18.13;;;7.40;99.90;;;;;;5128645;28;20573;-83
2021/12/29 04:15:54;;;;;;;33.83;19.80;;;7.40;99.90;;;;;;5121168;28;20401;-80
2021/12/29 04:18:30;;;;;;;30.45;18.45;;;7.40;99.90;;;;;;5115509;28;20039;-83
2021/12/29 04:20:59;;;;;;;41.22;18.38;;;7.40;99.90;;;;;;5097120;28;20044;-83
2021/12/29 04:23:28;;;;;;;36.70;17.67;;;7.30;99.90;;;;;;5121828;28;20036;-82
2021/12/29 04:25:55;;;;;;;35.05;17.80;;;7.40;99.90;;;;;;5111798;28;20059;-81
2021/12/29 04:28:25;;;;;;;30.33;16.30;;;7.40;99.90;;;;;;5078808;28;20477;-82
2021/12/29 04:30:54;;;;;;;39.92;15.73;;;7.40;99.90;;;;;;5116289;28;20039;-84
2021/12/29 04:33:21;;;;;;;40.00;16.15;;;7.30;99.90;;;;;;5119751;28;20036;-83
2021/12/29 04:35:47;;;;;;;33.60;18.30;;;7.30;99.90;;;;;;5121162;28;20047;-84
2021/12/29 04:38:13;;;;;;;29.27;15.98;;;7.30;99.90;;;;;;5108340;28;20035;-81
2021/12/29 04:40:39;;;;;;;37.85;17.10;;;7.30;99.90;;;;;;5114870;28;20055;-83
2021/12/29 04:43:04;;;;;;;34.03;15.60;;;7.40;99.90;;;;;;5108738;28;20043;-83
2021/12/29 04:45:30;;;;;;;29.20;14.20;;;7.40;99.90;;;;;;5110271;27;20435;-83
2021/12/29 04:47:56;;;;;;;31.70;17.88;;;7.30;99.90;;;;;;5111133;27;20039;-85
2021/12/29 04:50:28;;;;;;;39.63;15.57;;;7.40;99.90;;;;;;5116724;27;20048;-85
2021/12/29 04:52:57;;;;;;;30.92;15.80;;;7.40;99.90;;;;;;5112917;27;20040;-84
2021/12/29 04:55:24;;;;;;;30.15;16.60;;;7.40;99.90;;;;;;5112393;27;20043;-85
2021/12/29 04:57:50;;;;;;;35.67;14.88;;;7.40;99.90;;;;;;5125164;27;20457;-84
2021/12/29 05:00:18;;;;;;;30.02;14.75;;;7.40;99.90;;;;;;5092953;27;20123;-85
2021/12/29 05:02:44;;;;;;;27.65;16.27;;;7.50;99.90;;;;;;5113665;27;20039;-84
2021/12/29 05:05:23;;;;;;;34.25;18.50;;;7.40;99.90;;;;;;5131450;27;20104;-84
2021/12/29 05:10:35;;;;;;;27.33;16.70;;;7.50;99.90;;;;;;5111434;27;20055;-84
2021/12/29 05:13:00;;;;;;;33.58;14.55;;;7.50;99.90;;;;;;5094897;27;20040;-84
2021/12/29 05:15:26;;;;;;;39.58;14.77;;;7.50;99.90;;;;;;5112643;27;20131;-83
2021/12/29 05:17:52;;;;;;;39.90;16.52;;;7.50;99.90;;;;;;5113998;27;20043;-83
2021/12/29 05:20:18;;;;;;;34.78;15.45;;;7.50;99.90;;;;;;5114681;27;20043;-82
2021/12/29 05:22:44;;;;;;;44.42;16.50;;;7.50;99.90;;;;;;5096527;28;20070;-84
2021/12/29 05:25:09;;;;;;;39.63;16.40;;;7.50;99.90;;;;;;5113521;27;20050;-83
2021/12/29 05:27:35;;;;;;;53.30;18.17;;;7.50;99.90;;;;;;5127058;27;20134;-83
2021/12/29 05:30:03;;;;;;;37.47;16.60;;;7.50;99.90;;;;;;5120286;27;20120;-82
2021/12/29 05:32:30;;;;;;;36.05;15.68;;;7.50;99.90;;;;;;5114222;27;20050;-83
2021/12/29 05:34:56;;;;;;;39.97;16.00;;;7.50;99.90;;;;;;5112057;27;20052;-83
2021/12/29 05:37:22;;;;;;;37.03;16.00;;;7.50;99.90;;;;;;5116751;27;20081;-81
2021/12/29 05:39:48;;;;;;;32.90;15.55;;;7.50;99.90;;;;;;5111387;28;20420;-83
2021/12/29 05:42:13;;;;;;;44.00;16.33;;;7.50;99.90;;;;;;5111172;27;20068;-73
2021/12/29 05:44:39;;;;;;;44.92;16.65;;;7.50;99.90;;;;;;5112726;28;20078;-81
2021/12/29 05:47:05;;;;;;;54.38;17.65;;;7.40;99.90;;;;;;5095996;28;20124;-80
2021/12/29 05:49:30;;;;;;;41.15;16.38;;;7.50;99.90;;;;;;5116169;27;20039;-82
2021/12/29 05:51:56;;;;;;;38.45;15.15;;;7.50;99.90;;;;;;5095644;28;20902;-82
2021/12/29 05:54:21;;;;;;;40.38;15.88;;;7.50;99.90;;;;;;5109775;27;20048;-81
2021/12/29 05:56:47;;;;;;;50.63;18.10;;;7.50;99.90;;;;;;5100879;27;20046;-80
2021/12/29 05:59:12;;;;;;;55.25;18.48;;;7.50;99.90;;;;;;5111743;27;20541;-74
2021/12/29 06:01:39;;;;;;;48.95;18.02;;;7.50;99.90;;;;;;5112333;27;20115;-80
2021/12/29 06:04:05;;;;;;;43.33;16.77;;;7.40;99.90;;;;;;5111666;27;20464;-81
2021/12/29 06:06:31;;;;;;;43.38;17.95;;;7.50;99.90;;;;;;5111673;27;20044;-80
2021/12/29 06:08:57;;;;;;;47.65;18.13;;;7.40;99.90;;;;;;5111557;27;20077;-81
2021/12/29 06:11:22;;;;;;;61.53;20.55;;;7.40;99.90;;;;;;5111691;27;20044;-79
2021/12/29 06:13:48;;;;;;;55.30;18.85;;;7.40;99.90;;;;;;5098579;28;20557;-78
2021/12/29 06:16:13;;;;;;;62.70;20.10;;;7.40;99.90;;;;;;5109994;27;20082;-76
2021/12/29 06:18:39;;;;;;;65.95;21.02;;;7.40;99.90;;;;;;5134317;27;20069;-83
2021/12/29 06:21:05;;;;;;;59.00;23.30;;;7.40;99.90;;;;;;5122576;27;20040;-82
2021/12/29 06:23:30;;;;;;;38.88;17.30;;;7.40;99.90;;;;;;5112324;27;20040;-84
2021/12/29 06:25:56;;;;;;;62.05;19.20;;;7.40;99.90;;;;;;5115073;27;20141;-83
2021/12/29 06:28:22;;;;;;;39.00;17.10;;;7.30;99.90;;;;;;5121771;27;20412;-82
2021/12/29 06:30:47;;;;;;;48.47;18.55;;;7.30;99.90;;;;;;5099908;28;20044;-80
2021/12/29 06:33:13;;;;;;;59.80;18.75;;;7.30;99.90;;;;;;5122996;27;20054;-81
2021/12/29 06:35:39;;;;;;;63.92;20.50;;;7.40;99.90;;;;;;5100914;28;20062;-82
2021/12/29 06:38:05;;;;;;;39.22;17.75;;;7.30;99.90;;;;;;5108637;27;20043;-81
2021/12/29 06:40:30;;;;;;;40.42;17.13;;;7.30;99.90;;;;;;5091242;28;20778;-82
2021/12/29 06:42:56;;;;;;;38.97;17.30;;;7.30;99.90;;;;;;5114834;27;20038;-82
2021/12/29 06:45:22;;;;;;;45.92;18.13;;;7.40;99.90;;;;;;5127787;27;20054;-81
2021/12/29 06:47:47;;;;;;;34.47;16.50;;;7.30;99.90;;;;;;5108543;27;20041;-81
2021/12/29 06:50:13;;;;;;;42.63;18.48;;;7.40;99.90;;;;;;5118052;27;20128;-79
2021/12/29 06:52:39;;;;;;;42.30;17.23;;;7.40;99.90;;;;;;5131742;27;20085;-80
2021/12/29 06:55:05;;;;;;;40.15;15.50;;;7.40;99.90;;;;;;5130739;27;20121;-81
2021/12/29 06:57:31;;;;;;;38.63;15.18;;;7.40;99.90;;;;;;5130918;27;20043;-79
2021/12/29 06:59:57;;;;;;;48.75;20.13;;;7.40;99.90;;;;;;5114823;27;20037;-81
2021/12/29 07:02:22;;;;;;;51.88;17.13;;;7.40;99.90;;;;;;5119957;27;20043;-81
2021/12/29 07:04:48;;;;;;;48.90;19.48;;;7.40;99.90;;;;;;5112971;27;20040;-80
2021/12/29 07:07:13;;;;;;;64.57;20.05;;;7.40;99.90;;;;;;5110507;27;20051;-74
2021/12/29 07:09:39;;;;;;;49.38;18.35;;;7.40;99.90;;;;;;5129827;27;20049;-82
2021/12/29 07:12:05;;;;;;;54.85;18.98;;;7.40;99.90;;;;;;5130453;27;20426;-83
2021/12/29 07:14:31;;;;;;;53.92;18.52;;;7.40;99.90;;;;;;5121293;27;20050;-83
2021/12/29 07:16:56;;;;;;;65.80;18.17;;;7.40;99.90;;;;;;5128639;27;20475;-82
2021/12/29 07:19:22;;;;;;;38.38;16.15;;;7.40;99.90;;;;;;5131081;27;20076;-84
2021/12/29 07:21:49;;;;;;;45.95;15.43;;;7.50;99.90;;;;;;5112859;27;20473;-82
2021/12/29 07:24:16;;;;;;;41.83;14.45;;;7.40;99.90;;;;;;5110020;27;20056;-76
2021/12/29 07:26:42;;;;;;;49.83;15.93;;;7.50;99.90;;;;;;5115713;27;20073;-82
2021/12/29 07:29:08;;;;;;;54.33;15.70;;;7.50;99.90;;;;;;5110438;28;20070;-84
2021/12/29 07:31:34;;;;;;;69.10;18.95;;;7.40;99.90;;;;;;5109673;27;20044;-84
2021/12/29 07:34:00;;;;;;;54.97;15.93;;;7.50;99.90;;;;;;5115801;27;20039;-78
2021/12/29 07:36:26;;;;;;;48.67;15.13;;;7.40;99.90;;;;;;5099825;28;20036;-83
2021/12/29 07:38:52;;;;;;;69.07;17.75;;;7.50;99.90;;;;;;5119678;27;20039;-83
2021/12/29 07:41:18;;;;;;;84.63;17.83;;;7.50;99.90;;;;;;5114546;27;20036;-83
2021/12/29 07:43:44;;;;;;;107.40;17.65;;;7.40;99.90;;;;;;5092666;28;20423;-79
2021/12/29 07:46:12;;;;;;;109.93;18.45;;;7.50;99.90;;;;;;5109432;28;20043;-77
2021/12/29 07:48:37;;;;;;;87.70;16.98;;;7.50;99.90;;;;;;5109887;28;20043;-76
2021/12/29 07:51:05;;;;;;;77.60;14.40;;;7.50;99.90;;;;;;5111317;27;20066;-74
2021/12/29 07:53:31;;;;;;;122.22;18.90;;;7.50;99.90;;;;;;5128544;27;20455;-78
2021/12/29 07:55:57;;;;;;;60.33;14.88;;;7.40;99.90;;;;;;5121884;27;20050;-77
2021/12/29 07:58:22;;;;;;;114.15;16.90;;;7.40;99.90;;;;;;5109401;28;20047;-79
2021/12/29 08:00:49;;;;;;;130.48;20.05;;;7.40;99.90;;;;;;5091152;28;20416;-79
2021/12/29 08:03:16;;;;;;;85.30;17.05;;;7.50;99.90;;;;;;5109501;27;20509;-76
2021/12/29 08:05:43;;;;;;;92.68;16.10;;;7.50;99.90;;;;;;5096452;27;20070;-78
2021/12/29 08:08:09;;;;;;;102.63;19.88;;;7.40;99.90;;;;;;5129566;27;20042;-79
2021/12/29 08:10:36;;;;;;;241.52;22.90;;;7.40;99.90;;;;;;5128814;27;20126;-79
2021/12/29 08:13:04;;;;;;;101.22;18.35;;;7.40;99.90;;;;;;5124229;27;20599;-74
2021/12/29 08:15:29;;;;;;;125.30;17.08;;;7.40;99.90;;;;;;5102628;28;20530;-78
2021/12/29 08:17:56;;;;;;;147.70;19.80;;;7.40;99.90;;;;;;5108810;28;20035;-76
2021/12/29 08:20:22;;;;;;;121.60;19.65;;;7.40;99.90;;;;;;5110892;27;20079;-79
2021/12/29 08:22:48;;;;;;;139.23;20.38;;;7.40;99.90;;;;;;5130087;27;20067;-79
2021/12/29 08:25:14;;;;;;;109.32;16.45;;;7.40;99.90;;;;;;5107310;28;20064;-76
2021/12/29 08:27:40;;;;;;;190.80;20.67;;;7.40;99.90;;;;;;5107900;28;20039;-77
2021/12/29 08:30:07;;;;;;;178.23;20.50;;;7.30;99.90;;;;;;5107029;28;20040;-77
2021/12/29 08:32:33;;;;;;;92.75;15.32;;;7.30;99.90;;;;;;5094933;28;20044;-76
2021/12/29 08:34:58;;;;;;;148.32;18.73;;;7.30;99.90;;;;;;5113442;28;20061;-75
2021/12/29 08:37:24;;;;;;;142.43;19.42;;;7.30;99.90;;;;;;5107025;28;20036;-76
2021/12/29 08:39:50;;;;;;;147.35;19.70;;;7.30;99.90;;;;;;5093749;28;20482;-82
2021/12/29 08:42:15;;;;;;;133.70;18.13;;;7.30;99.90;;;;;;5094078;28;20032;-80
2021/12/29 08:44:41;;;;;;;91.55;16.25;;;7.40;99.90;;;;;;5109468;28;20548;-81
2021/12/29 08:47:08;;;;;;;166.02;18.27;;;7.40;99.90;;;;;;5091876;28;20052;-80
2021/12/29 08:49:34;;;;;;;83.97;15.48;;;7.30;99.90;;;;;;5092621;28;20056;-80
2021/12/29 08:52:00;;;;;;;53.22;13.50;;;7.40;99.90;;;;;;5106410;28;20046;-82
2021/12/29 08:54:26;;;;;;;33.75;11.93;;;7.40;99.90;;;;;;5096015;28;20127;-82
2021/12/29 08:56:54;;;;;;;31.83;10.75;;;7.40;99.90;;;;;;5100945;28;20104;-82
2021/12/29 08:59:21;;;;;;;33.65;11.02;;;7.40;99.90;;;;;;5092828;28;20091;-82
2021/12/29 09:01:46;;;;;;;23.35;10.65;;;7.40;99.90;;;;;;5093201;28;20472;-83
2021/12/29 09:04:12;;;;;;;25.30;9.68;;;7.40;99.90;;;;;;5093675;28;20126;-84
2021/12/29 09:06:38;;;;;;;28.33;11.23;;;7.40;99.90;;;;;;5094723;28;20402;-88
2021/12/29 09:09:04;;;;;;;22.65;10.18;;;7.50;99.90;;;;;;5099372;28;20716;-76
2021/12/29 09:11:30;;;;;;;27.60;10.18;;;7.50;99.90;;;;;;5118741;28;20233;-87
2021/12/29 09:13:57;;;;;;;24.85;8.55;;;7.50;99.90;;;;;;5102900;28;20414;-88
2021/12/29 09:16:22;;;;;;;24.05;9.93;;;7.50;99.90;;;;;;5113616;28;20051;-89
2021/12/29 09:18:48;;;;;;;31.17;10.57;;;7.60;99.90;;;;;;5111769;28;20181;-83
2021/12/29 09:21:16;;;;;;;27.88;11.32;;;7.60;99.90;;;;;;5117042;28;20047;-73
2021/12/29 09:23:43;;;;;;;21.05;10.15;;;7.60;99.90;;;;;;5111281;28;20547;-77
2021/12/29 09:26:12;;;;;;;29.98;10.40;;;7.60;99.90;;;;;;5128688;27;20053;-87
2021/12/29 09:28:37;;;;;;;31.55;11.88;;;7.70;99.90;;;;;;5104511;27;20043;-87
2021/12/29 09:31:03;;;;;;;26.05;11.48;;;7.70;99.90;;;;;;5131155;27;20047;-88
2021/12/29 09:33:29;;;;;;;26.48;10.98;;;7.80;99.90;;;;;;5132686;27;20039;-87
2021/12/29 09:36:01;;;;;;;24.02;9.50;;;7.70;99.90;;;;;;5122310;27;20116;-87
2021/12/29 09:38:28;;;;;;;27.60;9.35;;;7.80;99.90;;;;;;5098234;27;20393;-87
2021/12/29 09:40:54;;;;;;;27.38;9.10;;;7.90;99.90;;;;;;5139690;27;20062;-75
2021/12/29 09:43:20;;;;;;;25.05;8.35;;;7.80;99.90;;;;;;5129620;27;20032;-90
2021/12/29 09:45:47;;;;;;;17.70;9.63;;;7.90;99.90;;;;;;5101716;28;20054;-84
2021/12/29 09:48:14;;;;;;;15.10;8.15;;;7.90;99.90;;;;;;5107408;27;20126;-86
2021/12/29 09:50:40;;;;;;;26.70;8.60;;;7.90;99.90;;;;;;5137826;27;20046;-87
2021/12/29 09:53:07;;;;;;;17.20;7.88;;;7.90;99.90;;;;;;5117188;27;20087;-86
2021/12/29 09:55:34;;;;;;;24.70;8.75;;;7.90;99.90;;;;;;5133841;27;20047;-90
2021/12/29 09:58:00;;;;;;;33.85;9.80;;;8.00;99.90;;;;;;5120698;27;20094;-92
2021/12/29 10:00:34;;;;;;;22.85;8.75;;;8.00;99.90;;;;;;5100223;28;20044;-85
2021/12/29 10:03:02;;;;;;;20.60;9.27;;;8.00;99.90;;;;;;5123026;27;20038;-89
2021/12/29 10:05:29;;;;;;;18.15;8.43;;;8.00;99.90;;;;;;5122285;27;20039;-89
2021/12/29 10:08:05;;;;;;;17.50;8.88;;;8.00;99.90;;;;;;5124899;27;20066;-88
2021/12/29 10:10:32;;;;;;;23.00;8.52;;;8.00;99.90;;;;;;5112929;27;20044;-90
2021/12/29 10:12:59;;;;;;;20.50;7.82;;;8.00;99.90;;;;;;5121018;27;20045;-89
2021/12/29 10:15:47;;;;;;;24.15;7.50;;;7.90;99.90;;;;;;5121663;27;20039;-91
2021/12/29 10:18:27;;;;;;;23.73;6.78;;;7.90;99.90;;;;;;5096090;28;20048;-73
2021/12/29 10:21:04;;;;;;;22.23;7.18;;;7.90;99.90;;;;;;5109201;27;20051;-90
2021/12/29 10:23:35;;;;;;;13.82;6.80;;;8.00;99.90;;;;;;5112047;27;20090;-89
2021/12/29 10:26:09;;;;;;;21.52;7.97;;;8.00;99.90;;;;;;5126291;27;20090;-87
2021/12/29 10:28:36;;;;;;;19.60;8.30;;;7.90;99.90;;;;;;5111691;27;20129;-87
2021/12/29 10:31:15;;;;;;;20.70;6.30;;;8.00;99.90;;;;;;5116229;27;20082;-80
2021/12/29 10:33:43;;;;;;;32.57;10.00;;;7.90;99.90;;;;;;5113700;28;20443;-86
2021/12/29 10:36:14;;;;;;;25.40;6.50;;;8.00;99.90;;;;;;5114477;27;20044;-81
2021/12/29 10:38:40;;;;;;;25.55;8.15;;;8.00;99.90;;;;;;5110617;28;20032;-77
2021/12/29 10:41:06;;;;;;;24.90;7.20;;;8.00;99.90;;;;;;5129290;27;20039;-81
2021/12/29 10:43:32;;;;;;;16.50;5.00;;;8.00;99.90;;;;;;5118562;27;20709;-83
2021/12/29 10:45:59;;;;;;;20.20;6.22;;;8.00;99.90;;;;;;5113117;27;20047;-77
2021/12/29 10:48:30;;;;;;;18.35;7.15;;;8.00;99.90;;;;;;5112980;27;20055;-80
2021/12/29 10:51:05;;;;;;;17.95;7.10;;;8.00;99.90;;;;;;5118085;27;20046;-79
2021/12/29 10:53:34;;;;;;;28.85;8.70;;;8.00;99.90;;;;;;5129373;27;20111;-80
2021/12/29 10:56:00;;;;;;;23.80;8.85;;;8.00;99.90;;;;;;5088889;27;20043;-80
2021/12/29 10:58:30;;;;;;;24.08;8.48;;;8.00;99.90;;;;;;5094364;28;20054;-80
2021/12/29 11:00:59;;;;;;;;;;;8.10;99.90;;;;;;5093459;28;20734;-79
2021/12/29 11:03:25;;;;;;;38.00;7.63;;;8.10;99.90;;;;;;5091784;28;19927;-81
2021/12/29 11:05:58;;;;;;;35.33;10.30;;;8.10;99.90;;;;;;5110727;28;20539;-80
2021/12/29 11:08:45;;;;;;;23.38;7.75;;;8.10;99.90;;;;;;5125770;27;20031;-83
2021/12/29 11:11:11;;;;;;;21.88;6.35;;;8.20;99.90;;;;;;5103616;27;20055;-82
2021/12/29 11:13:36;;;;;;;28.85;7.22;;;8.20;99.90;;;;;;5110036;27;20122;-82
2021/12/29 11:16:04;;;;;;;32.33;8.60;;;8.20;99.90;;;;;;5130432;27;20778;-81
2021/12/29 11:18:47;;;;;;;22.05;7.00;;;8.20;99.90;;;;;;5110591;27;20631;-83
2021/12/29 11:21:22;;;;;;;29.02;8.25;;;8.30;99.90;;;;;;5091950;28;20397;-77
2021/12/29 11:23:47;;;;;;;27.77;6.88;;;8.30;99.90;;;;;;5091578;28;20051;-82
2021/12/29 11:26:13;;;;;;;23.10;5.43;;;8.30;99.90;;;;;;5109164;28;20121;-78
2021/12/29 11:28:39;;;;;;;18.55;5.55;;;8.40;99.90;;;;;;5121812;27;20036;-84
2021/12/29 11:31:09;;;;;;;30.05;6.97;;;8.30;99.90;;;;;;5091915;28;20501;-82
2021/12/29 11:33:35;;;;;;;36.72;6.97;;;8.40;99.90;;;;;;5105485;27;20083;-78
2021/12/29 11:36:04;;;;;;;25.10;6.20;;;8.40;99.90;;;;;;5117117;27;20054;-78
2021/12/29 11:38:30;;;;;;;23.25;5.38;;;8.40;99.90;;;;;;5090425;28;20039;-79
2021/12/29 11:40:58;;;;;;;18.48;5.50;;;8.30;99.90;;;;;;5109906;27;20061;-75
2021/12/29 11:43:24;;;;;;;15.15;4.05;;;8.30;99.90;;;;;;5109706;27;20509;-82
2021/12/29 11:45:52;;;;;;;14.75;5.25;;;8.30;99.90;;;;;;5110002;27;20036;-80
2021/12/29 11:48:20;;;;;;;20.23;5.55;;;8.30;99.90;;;;;;5096102;27;20087;-79
2021/12/29 11:50:59;;;;;;;20.38;6.65;;;8.30;99.90;;;;;;5129952;27;20461;-79
2021/12/29 11:53:38;;;;;;;15.95;5.50;;;8.30;99.90;;;;;;5129386;27;20130;-80
2021/12/29 11:56:14;;;;;;;16.75;4.43;;;8.40;99.90;;;;;;5097842;28;20447;-81
2021/12/29 11:58:42;;;;;;;15.40;5.50;;;8.30;99.90;;;;;;5110343;28;20105;-81
2021/12/29 12:01:17;;;;;;;19.95;4.88;;;8.20;99.90;;;;;;5115986;27;20043;-78
2021/12/29 12:03:55;;;;;;;14.43;4.43;;;8.20;99.90;;;;;;5097022;28;20036;-76
2021/12/29 12:06:32;;;;;;;18.80;4.30;;;8.30;99.90;;;;;;5128243;27;20084;-77
2021/12/29 12:09:18;;;;;;;9.88;3.85;;;8.20;99.90;;;;;;5111218;27;20412;-77
2021/12/29 12:11:50;;;;;;;16.90;5.05;;;8.20;99.90;;;;;;5126100;27;20473;-77
2021/12/29 12:14:19;;;;;;;14.90;4.47;;;8.10;99.90;;;;;;5091149;28;20430;-76
2021/12/29 12:16:53;;;;;;;11.93;4.45;;;8.10;99.90;;;;;;5119966;28;20084;-75
2021/12/29 12:19:25;;;;;;;13.27;4.25;;;8.10;99.90;;;;;;5128683;28;20058;-76
2021/12/29 12:22:14;;;;;;;13.98;4.18;;;8.10;99.90;;;;;;5112414;28;20413;-77
2021/12/29 12:25:04;;;;;;;12.15;4.55;;;8.10;99.90;;;;;;5108737;28;20409;-76
2021/12/29 12:27:41;;;;;;;23.33;5.18;;;8.10;99.90;;;;;;5094112;28;20043;-82
2021/12/29 12:30:22;;;;;;;12.38;4.15;;;8.10;99.90;;;;;;5123963;28;20048;-82
2021/12/29 12:32:56;;;;;;;15.57;4.43;;;8.10;99.90;;;;;;5113296;28;20080;-88
2021/12/29 12:35:34;;;;;;;8.77;4.05;;;8.10;99.90;;;;;;5116495;28;20694;-87
2021/12/29 12:38:15;;;;;;;11.50;3.95;;;8.20;99.90;;;;;;5130326;28;20047;-86
2021/12/29 12:40:43;;;;;;;20.48;4.93;;;8.00;99.90;;;;;;5111034;28;20519;-85
2021/12/29 12:43:16;;;;;;;10.75;4.22;;;8.00;99.90;;;;;;5099450;28;20125;-84